sensor_id;sensor_type;location;lat;lon;timestamp;P1;durP1;ratioP1;P2;durP2;ratioP2
68284;SDS011;55114;52.052;5.238;2022-07-10T00:01:31;7.03;;;1.25;;
68284;SDS011;55114;52.052;5.238;2022-07-10T00:03:58;5.65;;;1.20;;
68284;SDS011;55114;52.052;5.238;2022-07-10T00:06:25;5.27;;;1.50;;
68284;SDS011;55114;52.052;5.238;2022-07-10T00:08:52;4.55;;;1.10;;
68284;SDS011;55114;52.052;5.238;2022-07-10T00:11:21;5.20;;;1.35;;
68284;SDS011;55114;52.052;5.238;2022-07-10T00:13:48;3.83;;;1.10;;
68284;SDS011;55114;52.052;5.238;2022-07-10T00:16:15;6.22;;;1.15;;
68284;SDS011;55114;52.052;5.238;2022-07-10T00:18:42;5.80;;;1.30;;
68284;SDS011;55114;52.052;5.238;2022-07-10T00:21:10;4.13;;;1.38;;
68284;SDS011;55114;52.052;5.238;2022-07-10T00:23:37;4.00;;;1.30;;
68284;SDS011;55114;52.052;5.238;2022-07-10T00:26:04;3.85;;;1.20;;
68284;SDS011;55114;52.052;5.238;2022-07-10T00:28:31;6.57;;;1.50;;
68284;SDS011;55114;52.052;5.238;2022-07-10T00:30:58;3.93;;;1.10;;
68284;SDS011;55114;52.052;5.238;2022-07-10T00:33:25;5.82;;;1.17;;
68284;SDS011;55114;52.052;5.238;2022-07-10T00:35:54;5.50;;;1.30;;
68284;SDS011;55114;52.052;5.238;2022-07-10T00:38:21;4.22;;;1.20;;
68284;SDS011;55114;52.052;5.238;2022-07-10T00:40:48;4.72;;;1.30;;
68284;SDS011;55114;52.052;5.238;2022-07-10T00:43:15;4.50;;;1.20;;
68284;SDS011;55114;52.052;5.238;2022-07-10T00:45:42;5.43;;;1.50;;
68284;SDS011;55114;52.052;5.238;2022-07-10T00:48:09;4.95;;;1.20;;
68284;SDS011;55114;52.052;5.238;2022-07-10T00:50:36;3.28;;;1.00;;
68284;SDS011;55114;52.052;5.238;2022-07-10T00:53:04;4.35;;;1.30;;
68284;SDS011;55114;52.052;5.238;2022-07-10T00:55:32;4.23;;;1.33;;
68284;SDS011;55114;52.052;5.238;2022-07-10T00:57:59;3.78;;;1.35;;
68284;SDS011;55114;52.052;5.238;2022-07-10T01:00:26;5.68;;;1.30;;
68284;SDS011;55114;52.052;5.238;2022-07-10T01:02:54;4.53;;;1.50;;
68284;SDS011;55114;52.052;5.238;2022-07-10T01:05:22;4.65;;;1.23;;
68284;SDS011;55114;52.052;5.238;2022-07-10T01:07:49;7.17;;;1.07;;
68284;SDS011;55114;52.052;5.238;2022-07-10T01:10:16;5.45;;;1.30;;
68284;SDS011;55114;52.052;5.238;2022-07-10T01:12:43;5.15;;;1.27;;
68284;SDS011;55114;52.052;5.238;2022-07-10T01:15:10;3.95;;;1.05;;
68284;SDS011;55114;52.052;5.238;2022-07-10T01:17:37;7.53;;;1.88;;
68284;SDS011;55114;52.052;5.238;2022-07-10T01:20:05;7.20;;;1.43;;
68284;SDS011;55114;52.052;5.238;2022-07-10T01:22:33;4.78;;;1.27;;
68284;SDS011;55114;52.052;5.238;2022-07-10T01:25:00;4.15;;;1.15;;
68284;SDS011;55114;52.052;5.238;2022-07-10T01:27:27;6.35;;;1.50;;
68284;SDS011;55114;52.052;5.238;2022-07-10T01:29:54;5.60;;;1.30;;
68284;SDS011;55114;52.052;5.238;2022-07-10T01:32:21;5.33;;;1.20;;
68284;SDS011;55114;52.052;5.238;2022-07-10T01:34:49;7.70;;;1.60;;
68284;SDS011;55114;52.052;5.238;2022-07-10T01:37:16;5.65;;;1.45;;
68284;SDS011;55114;52.052;5.238;2022-07-10T01:39:43;3.75;;;1.33;;
68284;SDS011;55114;52.052;5.238;2022-07-10T01:42:10;5.80;;;1.30;;
68284;SDS011;55114;52.052;5.238;2022-07-10T01:44:37;7.10;;;1.30;;
68284;SDS011;55114;52.052;5.238;2022-07-10T01:47:04;6.70;;;1.25;;
68284;SDS011;55114;52.052;5.238;2022-07-10T01:49:31;4.40;;;1.33;;
68284;SDS011;55114;52.052;5.238;2022-07-10T01:52:00;5.60;;;1.23;;
68284;SDS011;55114;52.052;5.238;2022-07-10T01:54:27;4.30;;;1.50;;
68284;SDS011;55114;52.052;5.238;2022-07-10T01:56:54;4.97;;;1.30;;
68284;SDS011;55114;52.052;5.238;2022-07-10T01:59:21;5.78;;;1.30;;
68284;SDS011;55114;52.052;5.238;2022-07-10T02:01:48;5.38;;;1.50;;
68284;SDS011;55114;52.052;5.238;2022-07-10T02:04:15;8.50;;;1.25;;
68284;SDS011;55114;52.052;5.238;2022-07-10T02:07:01;6.70;;;1.30;;
68284;SDS011;55114;52.052;5.238;2022-07-10T02:09:29;6.10;;;1.27;;
68284;SDS011;55114;52.052;5.238;2022-07-10T02:11:56;13.23;;;2.42;;
68284;SDS011;55114;52.052;5.238;2022-07-10T02:14:23;4.25;;;1.30;;
68284;SDS011;55114;52.052;5.238;2022-07-10T02:16:50;6.68;;;1.20;;
68284;SDS011;55114;52.052;5.238;2022-07-10T02:19:17;6.30;;;1.33;;
68284;SDS011;55114;52.052;5.238;2022-07-10T02:21:44;4.13;;;1.10;;
68284;SDS011;55114;52.052;5.238;2022-07-10T02:24:12;4.95;;;1.30;;
68284;SDS011;55114;52.052;5.238;2022-07-10T02:26:39;4.57;;;1.50;;
68284;SDS011;55114;52.052;5.238;2022-07-10T02:29:06;4.18;;;1.20;;
68284;SDS011;55114;52.052;5.238;2022-07-10T02:31:33;6.90;;;1.27;;
68284;SDS011;55114;52.052;5.238;2022-07-10T02:34:03;6.17;;;1.30;;
68284;SDS011;55114;52.052;5.238;2022-07-10T02:36:30;4.70;;;1.40;;
68284;SDS011;55114;52.052;5.238;2022-07-10T02:38:57;6.22;;;1.23;;
68284;SDS011;55114;52.052;5.238;2022-07-10T02:41:24;3.40;;;1.15;;
68284;SDS011;55114;52.052;5.238;2022-07-10T02:43:51;4.75;;;1.20;;
68284;SDS011;55114;52.052;5.238;2022-07-10T02:46:18;4.77;;;1.03;;
68284;SDS011;55114;52.052;5.238;2022-07-10T02:48:45;6.25;;;1.30;;
68284;SDS011;55114;52.052;5.238;2022-07-10T02:51:12;4.68;;;1.42;;
68284;SDS011;55114;52.052;5.238;2022-07-10T02:53:40;5.72;;;1.58;;
68284;SDS011;55114;52.052;5.238;2022-07-10T02:56:07;4.68;;;1.30;;
68284;SDS011;55114;52.052;5.238;2022-07-10T02:58:34;6.77;;;1.30;;
68284;SDS011;55114;52.052;5.238;2022-07-10T03:01:02;4.65;;;1.30;;
68284;SDS011;55114;52.052;5.238;2022-07-10T03:03:29;5.25;;;1.50;;
68284;SDS011;55114;52.052;5.238;2022-07-10T03:05:56;4.13;;;1.10;;
68284;SDS011;55114;52.052;5.238;2022-07-10T03:08:23;3.83;;;1.27;;
68284;SDS011;55114;52.052;5.238;2022-07-10T03:10:50;5.37;;;1.20;;
68284;SDS011;55114;52.052;5.238;2022-07-10T03:13:17;5.28;;;1.50;;
68284;SDS011;55114;52.052;5.238;2022-07-10T03:15:44;6.82;;;1.60;;
68284;SDS011;55114;52.052;5.238;2022-07-10T03:18:11;4.40;;;1.42;;
68284;SDS011;55114;52.052;5.238;2022-07-10T03:20:39;4.55;;;1.33;;
68284;SDS011;55114;52.052;5.238;2022-07-10T03:23:06;5.67;;;1.53;;
68284;SDS011;55114;52.052;5.238;2022-07-10T03:25:33;6.32;;;1.45;;
68284;SDS011;55114;52.052;5.238;2022-07-10T03:28:00;6.03;;;1.52;;
68284;SDS011;55114;52.052;5.238;2022-07-10T03:30:27;4.88;;;1.20;;
68284;SDS011;55114;52.052;5.238;2022-07-10T03:32:54;7.53;;;1.42;;
68284;SDS011;55114;52.052;5.238;2022-07-10T03:35:21;8.03;;;1.30;;
68284;SDS011;55114;52.052;5.238;2022-07-10T03:37:48;5.53;;;1.30;;
68284;SDS011;55114;52.052;5.238;2022-07-10T03:40:15;5.88;;;1.20;;
68284;SDS011;55114;52.052;5.238;2022-07-10T03:42:42;4.38;;;1.38;;
68284;SDS011;55114;52.052;5.238;2022-07-10T03:45:09;5.10;;;1.30;;
68284;SDS011;55114;52.052;5.238;2022-07-10T03:47:37;4.80;;;1.50;;
68284;SDS011;55114;52.052;5.238;2022-07-10T03:50:04;4.95;;;1.17;;
68284;SDS011;55114;52.052;5.238;2022-07-10T03:52:31;9.13;;;1.48;;
68284;SDS011;55114;52.052;5.238;2022-07-10T03:54:58;3.63;;;1.25;;
68284;SDS011;55114;52.052;5.238;2022-07-10T03:57:25;3.53;;;1.00;;
68284;SDS011;55114;52.052;5.238;2022-07-10T04:00:12;6.60;;;1.07;;
68284;SDS011;55114;52.052;5.238;2022-07-10T04:02:39;5.00;;;1.33;;
68284;SDS011;55114;52.052;5.238;2022-07-10T04:05:06;6.80;;;1.50;;
68284;SDS011;55114;52.052;5.238;2022-07-10T04:07:34;5.07;;;1.30;;
68284;SDS011;55114;52.052;5.238;2022-07-10T04:10:02;5.72;;;1.48;;
68284;SDS011;55114;52.052;5.238;2022-07-10T04:12:31;7.23;;;1.43;;
68284;SDS011;55114;52.052;5.238;2022-07-10T04:14:58;4.75;;;1.40;;
68284;SDS011;55114;52.052;5.238;2022-07-10T04:17:25;10.13;;;1.88;;
68284;SDS011;55114;52.052;5.238;2022-07-10T04:19:52;6.95;;;1.40;;
68284;SDS011;55114;52.052;5.238;2022-07-10T04:22:19;5.03;;;1.40;;
68284;SDS011;55114;52.052;5.238;2022-07-10T04:24:46;7.33;;;1.50;;
68284;SDS011;55114;52.052;5.238;2022-07-10T04:27:14;7.45;;;1.50;;
68284;SDS011;55114;52.052;5.238;2022-07-10T04:29:43;8.88;;;1.67;;
68284;SDS011;55114;52.052;5.238;2022-07-10T04:32:10;5.63;;;1.20;;
68284;SDS011;55114;52.052;5.238;2022-07-10T04:34:37;4.68;;;1.17;;
68284;SDS011;55114;52.052;5.238;2022-07-10T04:37:05;4.80;;;1.23;;
68284;SDS011;55114;52.052;5.238;2022-07-10T04:39:33;7.22;;;1.65;;
68284;SDS011;55114;52.052;5.238;2022-07-10T04:42:01;7.20;;;1.25;;
68284;SDS011;55114;52.052;5.238;2022-07-10T04:44:29;7.40;;;1.35;;
68284;SDS011;55114;52.052;5.238;2022-07-10T04:46:57;6.40;;;1.40;;
68284;SDS011;55114;52.052;5.238;2022-07-10T04:49:24;4.70;;;1.30;;
68284;SDS011;55114;52.052;5.238;2022-07-10T04:51:52;3.13;;;1.40;;
68284;SDS011;55114;52.052;5.238;2022-07-10T04:54:19;7.50;;;1.50;;
68284;SDS011;55114;52.052;5.238;2022-07-10T04:56:46;8.73;;;1.25;;
68284;SDS011;55114;52.052;5.238;2022-07-10T04:59:13;6.10;;;1.10;;
68284;SDS011;55114;52.052;5.238;2022-07-10T05:01:40;3.70;;;1.10;;
68284;SDS011;55114;52.052;5.238;2022-07-10T05:04:07;6.38;;;1.25;;
68284;SDS011;55114;52.052;5.238;2022-07-10T05:06:34;6.00;;;1.20;;
68284;SDS011;55114;52.052;5.238;2022-07-10T05:09:02;5.45;;;1.30;;
68284;SDS011;55114;52.052;5.238;2022-07-10T05:11:29;4.30;;;1.30;;
68284;SDS011;55114;52.052;5.238;2022-07-10T05:13:57;6.03;;;1.10;;
68284;SDS011;55114;52.052;5.238;2022-07-10T05:16:25;5.32;;;1.30;;
68284;SDS011;55114;52.052;5.238;2022-07-10T05:18:52;6.05;;;1.58;;
68284;SDS011;55114;52.052;5.238;2022-07-10T05:21:19;6.40;;;1.30;;
68284;SDS011;55114;52.052;5.238;2022-07-10T05:23:46;5.03;;;1.70;;
68284;SDS011;55114;52.052;5.238;2022-07-10T05:26:13;6.93;;;1.53;;
68284;SDS011;55114;52.052;5.238;2022-07-10T05:28:40;5.30;;;1.50;;
68284;SDS011;55114;52.052;5.238;2022-07-10T05:31:07;5.75;;;1.60;;
68284;SDS011;55114;52.052;5.238;2022-07-10T05:33:35;6.88;;;1.98;;
68284;SDS011;55114;52.052;5.238;2022-07-10T05:36:04;5.43;;;1.55;;
68284;SDS011;55114;52.052;5.238;2022-07-10T05:38:32;7.33;;;1.47;;
68284;SDS011;55114;52.052;5.238;2022-07-10T05:40:59;7.38;;;1.42;;
68284;SDS011;55114;52.052;5.238;2022-07-10T05:43:26;5.60;;;1.85;;
68284;SDS011;55114;52.052;5.238;2022-07-10T05:45:53;6.38;;;1.20;;
68284;SDS011;55114;52.052;5.238;2022-07-10T05:48:24;4.75;;;1.33;;
68284;SDS011;55114;52.052;5.238;2022-07-10T05:50:51;4.13;;;1.60;;
68284;SDS011;55114;52.052;5.238;2022-07-10T05:53:18;7.05;;;1.40;;
68284;SDS011;55114;52.052;5.238;2022-07-10T05:55:46;6.00;;;1.48;;
68284;SDS011;55114;52.052;5.238;2022-07-10T05:58:15;6.28;;;1.38;;
68284;SDS011;55114;52.052;5.238;2022-07-10T06:00:42;6.30;;;1.40;;
68284;SDS011;55114;52.052;5.238;2022-07-10T06:03:10;4.00;;;1.40;;
68284;SDS011;55114;52.052;5.238;2022-07-10T06:05:38;5.93;;;1.98;;
68284;SDS011;55114;52.052;5.238;2022-07-10T06:08:05;8.40;;;1.48;;
68284;SDS011;55114;52.052;5.238;2022-07-10T06:10:32;6.32;;;1.48;;
68284;SDS011;55114;52.052;5.238;2022-07-10T06:12:59;6.03;;;1.42;;
68284;SDS011;55114;52.052;5.238;2022-07-10T06:15:26;5.80;;;1.40;;
68284;SDS011;55114;52.052;5.238;2022-07-10T06:17:56;5.68;;;1.40;;
68284;SDS011;55114;52.052;5.238;2022-07-10T06:20:24;6.90;;;1.70;;
68284;SDS011;55114;52.052;5.238;2022-07-10T06:22:52;6.30;;;1.52;;
68284;SDS011;55114;52.052;5.238;2022-07-10T06:25:19;6.45;;;1.33;;
68284;SDS011;55114;52.052;5.238;2022-07-10T06:27:46;5.80;;;1.37;;
68284;SDS011;55114;52.052;5.238;2022-07-10T06:30:13;7.35;;;1.50;;
68284;SDS011;55114;52.052;5.238;2022-07-10T06:32:41;5.38;;;1.50;;
68284;SDS011;55114;52.052;5.238;2022-07-10T06:35:08;8.63;;;2.00;;
68284;SDS011;55114;52.052;5.238;2022-07-10T06:37:35;6.10;;;1.50;;
68284;SDS011;55114;52.052;5.238;2022-07-10T06:40:03;6.47;;;1.50;;
68284;SDS011;55114;52.052;5.238;2022-07-10T06:42:30;5.43;;;1.40;;
68284;SDS011;55114;52.052;5.238;2022-07-10T06:44:57;5.35;;;1.40;;
68284;SDS011;55114;52.052;5.238;2022-07-10T06:47:24;5.03;;;1.48;;
68284;SDS011;55114;52.052;5.238;2022-07-10T06:50:10;4.35;;;1.50;;
68284;SDS011;55114;52.052;5.238;2022-07-10T06:52:37;6.10;;;1.30;;
68284;SDS011;55114;52.052;5.238;2022-07-10T06:55:04;7.10;;;1.85;;
68284;SDS011;55114;52.052;5.238;2022-07-10T06:57:32;6.85;;;1.60;;
68284;SDS011;55114;52.052;5.238;2022-07-10T06:59:59;6.60;;;1.70;;
68284;SDS011;55114;52.052;5.238;2022-07-10T07:02:26;6.57;;;2.53;;
68284;SDS011;55114;52.052;5.238;2022-07-10T07:04:53;7.87;;;2.57;;
68284;SDS011;55114;52.052;5.238;2022-07-10T07:07:21;4.65;;;1.42;;
68284;SDS011;55114;52.052;5.238;2022-07-10T07:09:51;7.57;;;1.50;;
68284;SDS011;55114;52.052;5.238;2022-07-10T07:12:18;4.10;;;1.48;;
68284;SDS011;55114;52.052;5.238;2022-07-10T07:14:45;5.53;;;1.60;;
68284;SDS011;55114;52.052;5.238;2022-07-10T07:17:13;3.97;;;1.30;;
68284;SDS011;55114;52.052;5.238;2022-07-10T07:19:47;5.53;;;1.45;;
68284;SDS011;55114;52.052;5.238;2022-07-10T07:22:33;5.20;;;1.60;;
68284;SDS011;55114;52.052;5.238;2022-07-10T07:25:19;4.03;;;1.30;;
68284;SDS011;55114;52.052;5.238;2022-07-10T07:27:46;6.78;;;1.60;;
68284;SDS011;55114;52.052;5.238;2022-07-10T07:30:14;5.10;;;1.40;;
68284;SDS011;55114;52.052;5.238;2022-07-10T07:32:42;5.32;;;1.70;;
68284;SDS011;55114;52.052;5.238;2022-07-10T07:35:10;6.57;;;1.70;;
68284;SDS011;55114;52.052;5.238;2022-07-10T07:37:44;5.20;;;1.70;;
68284;SDS011;55114;52.052;5.238;2022-07-10T07:40:13;7.13;;;1.73;;
68284;SDS011;55114;52.052;5.238;2022-07-10T07:42:41;4.70;;;1.50;;
68284;SDS011;55114;52.052;5.238;2022-07-10T07:45:08;6.10;;;1.75;;
68284;SDS011;55114;52.052;5.238;2022-07-10T07:47:42;4.95;;;1.70;;
68284;SDS011;55114;52.052;5.238;2022-07-10T07:50:11;5.97;;;1.77;;
68284;SDS011;55114;52.052;5.238;2022-07-10T07:52:38;7.43;;;1.80;;
68284;SDS011;55114;52.052;5.238;2022-07-10T07:55:06;5.13;;;1.60;;
68284;SDS011;55114;52.052;5.238;2022-07-10T07:57:33;7.60;;;2.05;;
68284;SDS011;55114;52.052;5.238;2022-07-10T08:00:00;6.35;;;1.90;;
68284;SDS011;55114;52.052;5.238;2022-07-10T08:02:27;5.68;;;1.60;;
68284;SDS011;55114;52.052;5.238;2022-07-10T08:04:55;4.72;;;1.80;;
68284;SDS011;55114;52.052;5.238;2022-07-10T08:07:22;5.73;;;1.67;;
68284;SDS011;55114;52.052;5.238;2022-07-10T08:09:49;5.20;;;1.60;;
68284;SDS011;55114;52.052;5.238;2022-07-10T08:12:17;5.18;;;1.88;;
68284;SDS011;55114;52.052;5.238;2022-07-10T08:14:44;5.63;;;1.88;;
68284;SDS011;55114;52.052;5.238;2022-07-10T08:17:11;6.57;;;2.00;;
68284;SDS011;55114;52.052;5.238;2022-07-10T08:19:38;5.30;;;1.63;;
68284;SDS011;55114;52.052;5.238;2022-07-10T08:22:06;6.35;;;2.00;;
68284;SDS011;55114;52.052;5.238;2022-07-10T08:24:33;5.03;;;2.03;;
68284;SDS011;55114;52.052;5.238;2022-07-10T08:27:00;6.18;;;1.77;;
68284;SDS011;55114;52.052;5.238;2022-07-10T08:29:27;5.82;;;1.70;;
68284;SDS011;55114;52.052;5.238;2022-07-10T08:31:54;5.90;;;1.77;;
68284;SDS011;55114;52.052;5.238;2022-07-10T08:34:21;9.90;;;2.10;;
68284;SDS011;55114;52.052;5.238;2022-07-10T08:36:48;4.22;;;1.90;;
68284;SDS011;55114;52.052;5.238;2022-07-10T08:39:17;4.88;;;1.90;;
68284;SDS011;55114;52.052;5.238;2022-07-10T08:41:47;5.85;;;2.08;;
68284;SDS011;55114;52.052;5.238;2022-07-10T08:44:17;5.47;;;1.80;;
68284;SDS011;55114;52.052;5.238;2022-07-10T08:46:45;6.00;;;2.08;;
68284;SDS011;55114;52.052;5.238;2022-07-10T08:49:12;5.57;;;2.13;;
68284;SDS011;55114;52.052;5.238;2022-07-10T08:51:58;6.07;;;1.80;;
68284;SDS011;55114;52.052;5.238;2022-07-10T08:54:27;5.78;;;1.95;;
68284;SDS011;55114;52.052;5.238;2022-07-10T08:56:58;3.70;;;1.83;;
68284;SDS011;55114;52.052;5.238;2022-07-10T08:59:25;4.88;;;2.20;;
68284;SDS011;55114;52.052;5.238;2022-07-10T09:01:57;5.25;;;2.30;;
68284;SDS011;55114;52.052;5.238;2022-07-10T09:04:25;5.25;;;2.10;;
68284;SDS011;55114;52.052;5.238;2022-07-10T09:06:53;5.32;;;2.17;;
68284;SDS011;55114;52.052;5.238;2022-07-10T09:09:21;4.47;;;1.77;;
68284;SDS011;55114;52.052;5.238;2022-07-10T09:11:54;7.43;;;2.35;;
68284;SDS011;55114;52.052;5.238;2022-07-10T09:14:22;5.00;;;1.90;;
68284;SDS011;55114;52.052;5.238;2022-07-10T09:17:01;4.53;;;1.80;;
68284;SDS011;55114;52.052;5.238;2022-07-10T09:19:28;5.63;;;2.17;;
68284;SDS011;55114;52.052;5.238;2022-07-10T09:22:08;4.93;;;1.90;;
68284;SDS011;55114;52.052;5.238;2022-07-10T09:24:36;5.00;;;1.90;;
68284;SDS011;55114;52.052;5.238;2022-07-10T09:27:04;6.05;;;2.30;;
68284;SDS011;55114;52.052;5.238;2022-07-10T09:29:32;7.22;;;2.15;;
68284;SDS011;55114;52.052;5.238;2022-07-10T09:32:00;5.85;;;2.22;;
68284;SDS011;55114;52.052;5.238;2022-07-10T09:35:10;4.73;;;2.20;;
68284;SDS011;55114;52.052;5.238;2022-07-10T09:37:38;4.07;;;1.80;;
68284;SDS011;55114;52.052;5.238;2022-07-10T09:40:06;4.32;;;1.95;;
68284;SDS011;55114;52.052;5.238;2022-07-10T09:42:40;4.38;;;1.98;;
68284;SDS011;55114;52.052;5.238;2022-07-10T09:50:29;4.60;;;1.95;;
68284;SDS011;55114;52.052;5.238;2022-07-10T09:52:57;3.60;;;2.13;;
68284;SDS011;55114;52.052;5.238;2022-07-10T09:55:25;4.05;;;1.83;;
68284;SDS011;55114;52.052;5.238;2022-07-10T09:58:02;6.32;;;2.00;;
68284;SDS011;55114;52.052;5.238;2022-07-10T10:03:01;5.93;;;1.65;;
68284;SDS011;55114;52.052;5.238;2022-07-10T10:10:46;6.32;;;1.80;;
68284;SDS011;55114;52.052;5.238;2022-07-10T10:13:15;4.20;;;1.87;;
68284;SDS011;55114;52.052;5.238;2022-07-10T10:15:43;4.43;;;1.90;;
68284;SDS011;55114;52.052;5.238;2022-07-10T10:18:11;5.60;;;2.10;;
68284;SDS011;55114;52.052;5.238;2022-07-10T10:20:40;3.47;;;1.70;;
68284;SDS011;55114;52.052;5.238;2022-07-10T10:23:12;4.45;;;1.98;;
68284;SDS011;55114;52.052;5.238;2022-07-10T10:25:40;4.90;;;2.10;;
68284;SDS011;55114;52.052;5.238;2022-07-10T10:28:08;4.22;;;1.85;;
68284;SDS011;55114;52.052;5.238;2022-07-10T10:30:41;5.53;;;1.75;;
68284;SDS011;55114;52.052;5.238;2022-07-10T10:35:55;3.92;;;2.00;;
68284;SDS011;55114;52.052;5.238;2022-07-10T10:38:22;5.03;;;2.00;;
68284;SDS011;55114;52.052;5.238;2022-07-10T10:40:49;4.00;;;1.90;;
68284;SDS011;55114;52.052;5.238;2022-07-10T10:45:49;5.15;;;1.60;;
68284;SDS011;55114;52.052;5.238;2022-07-10T10:48:18;7.00;;;2.10;;
68284;SDS011;55114;52.052;5.238;2022-07-10T10:51:05;5.00;;;1.73;;
68284;SDS011;55114;52.052;5.238;2022-07-10T10:53:32;5.72;;;1.90;;
68284;SDS011;55114;52.052;5.238;2022-07-10T10:58:27;4.55;;;1.80;;
68284;SDS011;55114;52.052;5.238;2022-07-10T11:01:04;5.03;;;1.70;;
68284;SDS011;55114;52.052;5.238;2022-07-10T11:03:31;6.37;;;1.60;;
68284;SDS011;55114;52.052;5.238;2022-07-10T11:05:58;4.40;;;1.55;;
68284;SDS011;55114;52.052;5.238;2022-07-10T11:08:36;4.25;;;1.70;;
68284;SDS011;55114;52.052;5.238;2022-07-10T11:13:49;4.28;;;1.50;;
68284;SDS011;55114;52.052;5.238;2022-07-10T11:16:16;3.83;;;1.50;;
68284;SDS011;55114;52.052;5.238;2022-07-10T11:18:44;4.40;;;1.52;;
68284;SDS011;55114;52.052;5.238;2022-07-10T11:21:12;3.38;;;1.50;;
68284;SDS011;55114;52.052;5.238;2022-07-10T11:24:10;4.28;;;1.50;;
68284;SDS011;55114;52.052;5.238;2022-07-10T11:26:47;4.45;;;1.45;;
68284;SDS011;55114;52.052;5.238;2022-07-10T11:29:18;6.50;;;1.63;;
68284;SDS011;55114;52.052;5.238;2022-07-10T11:31:52;4.00;;;1.48;;
68284;SDS011;55114;52.052;5.238;2022-07-10T11:34:19;4.55;;;1.60;;
68284;SDS011;55114;52.052;5.238;2022-07-10T11:36:47;3.97;;;1.48;;
68284;SDS011;55114;52.052;5.238;2022-07-10T11:39:14;3.45;;;1.70;;
68284;SDS011;55114;52.052;5.238;2022-07-10T11:41:43;3.13;;;1.70;;
68284;SDS011;55114;52.052;5.238;2022-07-10T11:44:14;3.88;;;1.80;;
68284;SDS011;55114;52.052;5.238;2022-07-10T11:46:42;3.85;;;1.50;;
68284;SDS011;55114;52.052;5.238;2022-07-10T11:49:15;4.28;;;1.40;;
68284;SDS011;55114;52.052;5.238;2022-07-10T11:51:43;3.90;;;1.50;;
68284;SDS011;55114;52.052;5.238;2022-07-10T11:54:12;5.93;;;1.70;;
68284;SDS011;55114;52.052;5.238;2022-07-10T11:56:40;3.08;;;1.42;;
68284;SDS011;55114;52.052;5.238;2022-07-10T11:59:10;4.60;;;1.60;;
68284;SDS011;55114;52.052;5.238;2022-07-10T12:01:44;3.65;;;1.63;;
68284;SDS011;55114;52.052;5.238;2022-07-10T12:04:13;4.03;;;2.03;;
68284;SDS011;55114;52.052;5.238;2022-07-10T12:06:41;5.83;;;1.90;;
68284;SDS011;55114;52.052;5.238;2022-07-10T12:09:18;3.95;;;1.60;;
68284;SDS011;55114;52.052;5.238;2022-07-10T12:11:58;4.95;;;1.67;;
68284;SDS011;55114;52.052;5.238;2022-07-10T12:14:26;3.67;;;1.55;;
68284;SDS011;55114;52.052;5.238;2022-07-10T12:16:53;2.88;;;1.70;;
68284;SDS011;55114;52.052;5.238;2022-07-10T12:19:31;2.80;;;1.53;;
68284;SDS011;55114;52.052;5.238;2022-07-10T12:22:04;4.00;;;1.48;;
68284;SDS011;55114;52.052;5.238;2022-07-10T12:24:31;4.97;;;1.80;;
68284;SDS011;55114;52.052;5.238;2022-07-10T12:26:58;5.30;;;1.63;;
68284;SDS011;55114;52.052;5.238;2022-07-10T12:29:26;4.32;;;1.63;;
68284;SDS011;55114;52.052;5.238;2022-07-10T12:31:55;3.63;;;1.50;;
68284;SDS011;55114;52.052;5.238;2022-07-10T12:34:32;4.85;;;1.90;;
68284;SDS011;55114;52.052;5.238;2022-07-10T12:37:06;3.28;;;1.70;;
68284;SDS011;55114;52.052;5.238;2022-07-10T12:39:36;4.10;;;1.60;;
68284;SDS011;55114;52.052;5.238;2022-07-10T12:42:05;3.60;;;1.70;;
68284;SDS011;55114;52.052;5.238;2022-07-10T12:47:09;2.63;;;1.40;;
68284;SDS011;55114;52.052;5.238;2022-07-10T12:52:21;2.72;;;1.45;;
68284;SDS011;55114;52.052;5.238;2022-07-10T12:55:05;3.25;;;1.55;;
68284;SDS011;55114;52.052;5.238;2022-07-10T13:00:22;3.28;;;1.67;;
68284;SDS011;55114;52.052;5.238;2022-07-10T13:02:56;5.10;;;1.80;;
68284;SDS011;55114;52.052;5.238;2022-07-10T13:05:31;3.42;;;1.48;;
68284;SDS011;55114;52.052;5.238;2022-07-10T13:08:09;2.70;;;1.50;;
68284;SDS011;55114;52.052;5.238;2022-07-10T13:10:39;3.90;;;1.63;;
68284;SDS011;55114;52.052;5.238;2022-07-10T13:13:07;3.78;;;1.90;;
68284;SDS011;55114;52.052;5.238;2022-07-10T13:15:34;3.17;;;1.50;;
68284;SDS011;55114;52.052;5.238;2022-07-10T13:18:20;4.82;;;1.90;;
68284;SDS011;55114;52.052;5.238;2022-07-10T13:20:48;4.75;;;1.70;;
68284;SDS011;55114;52.052;5.238;2022-07-10T13:23:22;3.13;;;1.60;;
68284;SDS011;55114;52.052;5.238;2022-07-10T13:25:54;4.22;;;1.50;;
68284;SDS011;55114;52.052;5.238;2022-07-10T13:28:21;4.07;;;1.73;;
68284;SDS011;55114;52.052;5.238;2022-07-10T13:30:48;4.30;;;1.60;;
68284;SDS011;55114;52.052;5.238;2022-07-10T13:33:15;3.28;;;1.50;;
68284;SDS011;55114;52.052;5.238;2022-07-10T13:35:43;3.33;;;1.80;;
68284;SDS011;55114;52.052;5.238;2022-07-10T13:38:10;3.35;;;1.42;;
68284;SDS011;55114;52.052;5.238;2022-07-10T13:40:43;4.13;;;1.83;;
68284;SDS011;55114;52.052;5.238;2022-07-10T13:43:10;4.10;;;1.73;;
68284;SDS011;55114;52.052;5.238;2022-07-10T13:45:38;5.05;;;2.00;;
68284;SDS011;55114;52.052;5.238;2022-07-10T13:48:12;3.40;;;1.70;;
68284;SDS011;55114;52.052;5.238;2022-07-10T13:50:40;5.32;;;2.00;;
68284;SDS011;55114;52.052;5.238;2022-07-10T13:53:07;4.97;;;1.80;;
68284;SDS011;55114;52.052;5.238;2022-07-10T13:55:35;4.40;;;1.70;;
68284;SDS011;55114;52.052;5.238;2022-07-10T13:58:03;3.60;;;2.00;;
68284;SDS011;55114;52.052;5.238;2022-07-10T14:00:30;4.37;;;2.00;;
68284;SDS011;55114;52.052;5.238;2022-07-10T14:02:57;4.28;;;1.80;;
68284;SDS011;55114;52.052;5.238;2022-07-10T14:05:26;3.00;;;1.80;;
68284;SDS011;55114;52.052;5.238;2022-07-10T14:07:53;4.78;;;1.70;;
68284;SDS011;55114;52.052;5.238;2022-07-10T14:10:20;3.72;;;1.80;;
68284;SDS011;55114;52.052;5.238;2022-07-10T14:12:48;4.70;;;1.70;;
68284;SDS011;55114;52.052;5.238;2022-07-10T14:15:15;5.32;;;1.75;;
68284;SDS011;55114;52.052;5.238;2022-07-10T14:17:43;5.18;;;1.90;;
68284;SDS011;55114;52.052;5.238;2022-07-10T14:20:11;4.53;;;1.80;;
68284;SDS011;55114;52.052;5.238;2022-07-10T14:22:38;4.63;;;2.22;;
68284;SDS011;55114;52.052;5.238;2022-07-10T14:25:06;3.53;;;1.70;;
68284;SDS011;55114;52.052;5.238;2022-07-10T14:27:34;4.07;;;1.80;;
68284;SDS011;55114;52.052;5.238;2022-07-10T14:30:02;3.53;;;1.90;;
68284;SDS011;55114;52.052;5.238;2022-07-10T14:32:29;4.90;;;2.10;;
68284;SDS011;55114;52.052;5.238;2022-07-10T14:34:56;5.18;;;1.80;;
68284;SDS011;55114;52.052;5.238;2022-07-10T14:37:23;3.80;;;1.67;;
68284;SDS011;55114;52.052;5.238;2022-07-10T14:39:51;3.42;;;1.70;;
68284;SDS011;55114;52.052;5.238;2022-07-10T14:42:18;4.00;;;1.80;;
68284;SDS011;55114;52.052;5.238;2022-07-10T14:44:45;4.28;;;1.80;;
68284;SDS011;55114;52.052;5.238;2022-07-10T14:47:12;4.85;;;2.20;;
68284;SDS011;55114;52.052;5.238;2022-07-10T14:49:41;4.37;;;2.20;;
68284;SDS011;55114;52.052;5.238;2022-07-10T14:52:08;3.80;;;2.08;;
68284;SDS011;55114;52.052;5.238;2022-07-10T14:54:35;4.38;;;1.98;;
68284;SDS011;55114;52.052;5.238;2022-07-10T14:57:03;4.28;;;1.92;;
68284;SDS011;55114;52.052;5.238;2022-07-10T14:59:30;5.40;;;2.10;;
68284;SDS011;55114;52.052;5.238;2022-07-10T15:01:57;6.67;;;2.03;;
68284;SDS011;55114;52.052;5.238;2022-07-10T15:04:24;5.10;;;2.20;;
68284;SDS011;55114;52.052;5.238;2022-07-10T15:06:51;4.32;;;2.08;;
68284;SDS011;55114;52.052;5.238;2022-07-10T15:09:19;4.82;;;2.00;;
68284;SDS011;55114;52.052;5.238;2022-07-10T15:11:46;3.13;;;1.95;;
68284;SDS011;55114;52.052;5.238;2022-07-10T15:14:13;4.17;;;1.90;;
68284;SDS011;55114;52.052;5.238;2022-07-10T15:16:40;5.13;;;2.15;;
68284;SDS011;55114;52.052;5.238;2022-07-10T15:19:07;5.32;;;2.30;;
68284;SDS011;55114;52.052;5.238;2022-07-10T15:21:36;4.38;;;2.08;;
68284;SDS011;55114;52.052;5.238;2022-07-10T15:24:03;4.20;;;2.33;;
68284;SDS011;55114;52.052;5.238;2022-07-10T15:26:31;5.13;;;2.30;;
68284;SDS011;55114;52.052;5.238;2022-07-10T15:28:58;4.70;;;2.00;;